createdAt,value
2019-03-29T00:00:06.117Z,90.89
2019-03-29T00:01:05.529Z,91.84
2019-03-29T00:02:05.553Z,90.7
2019-03-29T00:03:05.246Z,90.5
2019-03-29T00:04:05.252Z,91.46
2019-03-29T00:05:05.487Z,91.65
2019-03-29T00:06:05.491Z,91.46
2019-03-29T00:07:06.182Z,91.36
2019-03-29T00:08:05.492Z,90.89
2019-03-29T00:09:05.486Z,90.98
2019-03-29T00:10:05.468Z,91.65
2019-03-29T00:11:05.445Z,91.08
2019-03-29T00:12:05.446Z,92.55
2019-03-29T00:13:05.451Z,92.65
2019-03-29T00:14:05.445Z,92.08
2019-03-29T00:15:05.436Z,92.08
2019-03-29T00:16:05.173Z,92.74
2019-03-29T00:17:05.421Z,93.13
2019-03-29T00:18:05.411Z,93.13
2019-03-29T00:19:05.419Z,92.94
2019-03-29T00:20:10.218Z,93.32
2019-03-29T00:21:05.152Z,93.6
2019-03-29T00:22:05.394Z,94.08
2019-03-29T00:23:05.407Z,94.37
2019-03-29T00:24:09.607Z,94.27
2019-03-29T00:25:05.127Z,94.37
2019-03-29T00:26:05.376Z,93.51
2019-03-29T00:27:05.128Z,93.7
2019-03-29T00:28:05.377Z,93.41
2019-03-29T00:29:05.778Z,92.94
2019-03-29T00:30:05.352Z,93.6
2019-03-29T00:31:05.101Z,93.7
2019-03-29T00:32:05.922Z,93.32
2019-03-29T00:33:05.330Z,93.41
2019-03-29T00:34:05.321Z,93.55
2019-03-29T00:35:05.313Z,93.51
2019-03-29T00:36:05.344Z,93.7
2019-03-29T00:37:05.068Z,93.74
2019-03-29T00:38:05.056Z,93.46
2019-03-29T00:39:05.057Z,94.51
2019-03-29T00:40:05.055Z,94.51
2019-03-29T00:41:05.290Z,94.42
2019-03-29T00:42:05.027Z,94.42
2019-03-29T00:43:05.274Z,94.51
2019-03-29T00:44:05.017Z,94.42
2019-03-29T00:45:05.258Z,95.27
2019-03-29T00:46:05.253Z,95.27
2019-03-29T00:47:06.346Z,96.22
2019-03-29T00:48:05.248Z,96.6
2019-03-29T00:49:05.248Z,96.98
2019-03-29T00:50:04.985Z,97.36
2019-03-29T00:51:05.241Z,97.17
2019-03-29T00:52:04.980Z,96.98
2019-03-29T00:53:04.971Z,96.7
2019-03-29T00:54:05.237Z,96.51
2019-03-29T00:55:05.212Z,96.41
2019-03-29T00:56:06.001Z,96.31
2019-03-29T00:57:05.263Z,96.41
2019-03-29T00:58:05.208Z,97.27
2019-03-29T00:59:04.930Z,97.5
2019-03-29T01:00:04.923Z,98.27
2019-03-29T01:01:05.164Z,98.46
2019-03-29T01:02:05.171Z,98.88
2019-03-29T01:03:05.160Z,99.17
2019-03-29T01:04:05.465Z,98.69
2019-03-29T01:05:05.142Z,98.5
2019-03-29T01:06:05.145Z,98.22
2019-03-29T01:07:05.224Z,98.88
2019-03-29T01:08:10.914Z,98.98
2019-03-29T01:09:05.243Z,98.27
2019-03-29T01:10:05.108Z,98.41
2019-03-29T01:11:04.883Z,98.69
2019-03-29T01:12:05.100Z,98.88
2019-03-29T01:13:04.847Z,98.5
2019-03-29T01:14:04.845Z,98.88
2019-03-29T01:15:04.847Z,99.17
2019-03-29T01:16:05.081Z,98.41
2019-03-29T01:17:04.835Z,98.69
2019-03-29T01:18:04.850Z,98.13
2019-03-29T01:19:06.121Z,98.41
2019-03-29T01:20:04.804Z,97.74
2019-03-29T01:21:06.150Z,98.6
2019-03-29T01:22:05.235Z,98.13
2019-03-29T01:23:04.792Z,98.32
2019-03-29T01:24:05.036Z,98.41
2019-03-29T01:25:05.022Z,98.32
2019-03-29T01:26:05.018Z,98.22
2019-03-29T01:27:05.013Z,98.41
2019-03-29T01:28:05.021Z,98.41
2019-03-29T01:29:05.000Z,98.69
2019-03-29T01:30:04.998Z,98.22
2019-03-29T01:31:04.993Z,98.5
2019-03-29T01:32:04.989Z,99.36
2019-03-29T01:33:04.977Z,99.08
2019-03-29T01:34:04.968Z,98.88
2019-03-29T01:35:05.017Z,99.27
2019-03-29T01:36:04.718Z,99.08
2019-03-29T01:37:04.956Z,98.98
2019-03-29T01:38:04.968Z,99.55
2019-03-29T01:39:04.944Z,98.79
2019-03-29T01:40:04.992Z,99.08
2019-03-29T01:41:04.714Z,99.08
2019-03-29T01:42:04.926Z,98.79
2019-03-29T01:43:04.922Z,98.32
2019-03-29T01:44:04.938Z,98.79
2019-03-29T01:45:04.666Z,98.5
2019-03-29T01:46:04.900Z,98.6
2019-03-29T01:47:06.376Z,98.32
2019-03-29T01:48:04.897Z,98.98
2019-03-29T01:49:04.899Z,98.88
2019-03-29T01:50:04.894Z,98.5
2019-03-29T01:51:04.891Z,98.41
2019-03-29T01:52:05.148Z,98.88
2019-03-29T01:53:04.856Z,98.69
2019-03-29T01:54:04.850Z,99.17
2019-03-29T01:55:04.693Z,99.17
2019-03-29T01:56:04.854Z,99.99
2019-03-29T01:57:04.588Z,99.99
2019-03-29T01:58:04.857Z,99.74
2019-03-29T01:59:04.827Z,99.84
2019-03-29T02:00:04.818Z,98.98
2019-03-29T02:01:05.449Z,99.27
2019-03-29T02:02:04.558Z,99.65
2019-03-29T02:03:04.552Z,99.99
2019-03-29T02:04:08.438Z,99.74
2019-03-29T02:05:04.555Z,99.74
2019-03-29T02:06:04.538Z,99.99
2019-03-29T02:07:04.523Z,99.93
2019-03-29T02:08:05.037Z,99.84
2019-03-29T02:09:05.097Z,99.17
2019-03-29T02:10:04.758Z,99.17
2019-03-29T02:11:04.511Z,99.27
2019-03-29T02:12:04.519Z,99.65
2019-03-29T02:13:04.805Z,99.17
2019-03-29T02:14:04.791Z,99.55
2019-03-29T02:15:04.478Z,99.22
2019-03-29T02:16:06.286Z,99.46
2019-03-29T02:17:04.729Z,98.98
2019-03-29T02:18:04.714Z,99.99
2019-03-29T02:19:05.251Z,99.99
2019-03-29T02:20:04.465Z,99.99
2019-03-29T02:21:04.466Z,99.99
2019-03-29T02:22:04.697Z,99.88
2019-03-29T02:23:05.405Z,99.99
2019-03-29T02:24:04.425Z,99.99
2019-03-29T02:25:04.675Z,99.99
2019-03-29T02:26:04.671Z,99.99
2019-03-29T02:27:04.677Z,99.99
2019-03-29T02:28:04.671Z,99.99
2019-03-29T02:29:04.401Z,99.99
2019-03-29T02:30:06.600Z,99.99
2019-03-29T02:31:04.405Z,99.99
2019-03-29T02:32:04.649Z,99.41
2019-03-29T02:33:04.608Z,99.99
2019-03-29T02:34:04.621Z,99.99
2019-03-29T02:35:04.620Z,99.99
2019-03-29T02:36:05.722Z,99.99
2019-03-29T02:37:05.176Z,99.99
2019-03-29T02:38:04.639Z,99.99
2019-03-29T02:39:04.633Z,99.99
2019-03-29T02:40:04.406Z,99.99
2019-03-29T02:41:04.581Z,99.99
2019-03-29T02:42:04.591Z,99.99
2019-03-29T02:43:04.346Z,99.99
2019-03-29T02:44:04.571Z,99.99
2019-03-29T02:45:05.859Z,99.99
2019-03-29T02:46:04.306Z,99.99
2019-03-29T02:47:04.552Z,99.99
2019-03-29T02:48:04.586Z,99.99
2019-03-29T02:49:04.290Z,99.99
2019-03-29T02:50:04.526Z,99.99
2019-03-29T02:51:05.163Z,99.99
2019-03-29T02:52:04.683Z,99.99
2019-03-29T02:53:04.503Z,99.99
2019-03-29T02:54:04.507Z,99.99
2019-03-29T02:55:04.483Z,99.99
2019-03-29T02:56:04.240Z,99.99
2019-03-29T02:57:04.476Z,99.99
2019-03-29T02:58:04.483Z,99.99
2019-03-29T02:59:04.475Z,99.99
2019-03-29T03:00:04.241Z,99.99
2019-03-29T03:01:04.212Z,99.99
2019-03-29T03:02:04.226Z,99.99
2019-03-29T03:03:04.454Z,99.99
2019-03-29T03:04:04.453Z,99.99
2019-03-29T03:05:04.199Z,99.99
2019-03-29T03:06:04.274Z,99.99
2019-03-29T03:07:04.183Z,99.99
2019-03-29T03:08:04.416Z,99.99
2019-03-29T03:09:15.574Z,99.99
2019-03-29T03:10:04.407Z,99.99
2019-03-29T03:11:04.412Z,99.99
2019-03-29T03:12:04.412Z,99.99
2019-03-29T03:13:04.385Z,99.99
2019-03-29T03:14:04.381Z,99.99
2019-03-29T03:15:04.363Z,99.99
2019-03-29T03:16:04.369Z,99.99
2019-03-29T03:17:04.350Z,99.99
2019-03-29T03:18:04.097Z,99.99
2019-03-29T03:19:04.351Z,99.99
2019-03-29T03:20:04.084Z,99.99
2019-03-29T03:21:04.376Z,99.99
2019-03-29T03:22:04.312Z,99.99
2019-03-29T03:23:04.352Z,99.99
2019-03-29T03:24:04.227Z,99.99
2019-03-29T03:25:04.306Z,99.99
2019-03-29T03:26:04.092Z,99.99
2019-03-29T03:27:04.279Z,99.99
2019-03-29T03:28:04.281Z,99.99
2019-03-29T03:29:04.051Z,99.99
2019-03-29T03:30:04.333Z,99.99
2019-03-29T03:31:04.259Z,99.99
2019-03-29T03:32:04.259Z,99.99
2019-03-29T03:33:04.331Z,99.99
2019-03-29T03:34:04.010Z,99.99
2019-03-29T03:35:04.237Z,99.99
2019-03-29T03:36:04.229Z,99.99
2019-03-29T03:37:04.222Z,99.99
2019-03-29T03:38:04.215Z,99.99
2019-03-29T03:39:04.195Z,99.99
2019-03-29T03:40:03.996Z,99.99
2019-03-29T03:41:04.178Z,99.99
2019-03-29T03:42:04.188Z,99.99
2019-03-29T03:43:03.926Z,99.99
2019-03-29T03:44:04.175Z,99.99
2019-03-29T03:45:04.157Z,99.99
2019-03-29T03:46:04.153Z,99.99
2019-03-29T03:47:04.154Z,99.99
2019-03-29T03:48:03.884Z,99.99
2019-03-29T03:49:04.133Z,99.99
2019-03-29T03:50:04.537Z,99.99
2019-03-29T03:51:03.871Z,99.99
2019-03-29T03:52:05.911Z,99.99
2019-03-29T03:53:04.098Z,99.99
2019-03-29T03:54:04.097Z,99.99
2019-03-29T03:55:04.091Z,99.99
2019-03-29T03:56:04.111Z,99.99
2019-03-29T03:57:04.090Z,99.99
2019-03-29T03:58:04.067Z,99.99
2019-03-29T03:59:04.056Z,99.99
2019-03-29T04:00:03.798Z,99.99
2019-03-29T04:01:03.845Z,99.99
2019-03-29T04:02:04.033Z,99.99
2019-03-29T04:03:03.782Z,99.99
2019-03-29T04:04:04.035Z,99.99
2019-03-29T04:05:04.025Z,99.99
2019-03-29T04:06:03.760Z,99.99
2019-03-29T04:07:04.059Z,99.99
2019-03-29T04:08:03.736Z,99.99
2019-03-29T04:09:04.163Z,99.99
2019-03-29T04:10:03.976Z,99.99
2019-03-29T04:11:03.982Z,99.99
2019-03-29T04:12:03.984Z,99.99
2019-03-29T04:13:03.709Z,99.99
2019-03-29T04:14:03.956Z,99.99
2019-03-29T04:15:03.696Z,99.99
2019-03-29T04:16:03.687Z,99.99
2019-03-29T04:17:03.921Z,99.99
2019-03-29T04:18:03.913Z,99.99
2019-03-29T04:19:03.911Z,99.99
2019-03-29T04:20:03.665Z,99.99
2019-03-29T04:21:03.899Z,99.99
2019-03-29T04:22:04.194Z,99.99
2019-03-29T04:23:03.884Z,99.99
2019-03-29T04:24:03.882Z,99.99
2019-03-29T04:25:03.900Z,99.99
2019-03-29T04:26:03.855Z,99.99
2019-03-29T04:27:03.632Z,99.99
2019-03-29T04:28:03.841Z,99.99
2019-03-29T04:29:07.217Z,99.99
2019-03-29T04:30:03.588Z,99.99
2019-03-29T04:31:03.831Z,99.99
2019-03-29T04:32:03.815Z,99.99
2019-03-29T04:33:03.803Z,99.99
2019-03-29T04:34:03.804Z,99.99
2019-03-29T04:35:03.593Z,99.99
2019-03-29T04:36:03.777Z,99.99
2019-03-29T04:37:03.771Z,99.99
2019-03-29T04:38:03.787Z,99.99
2019-03-29T04:39:03.785Z,99.99
2019-03-29T04:40:10.443Z,99.99
2019-03-29T04:41:03.746Z,99.99
2019-03-29T04:42:03.728Z,99.99
2019-03-29T04:43:03.730Z,99.99
2019-03-29T04:44:03.473Z,99.99
2019-03-29T04:45:03.720Z,99.99
2019-03-29T04:46:03.718Z,99.99
2019-03-29T04:47:03.695Z,99.99
2019-03-29T04:48:03.703Z,99.99
2019-03-29T04:49:03.695Z,99.99
2019-03-29T04:50:03.670Z,99.99
2019-03-29T04:51:03.501Z,99.99
2019-03-29T04:52:03.412Z,99.99
2019-03-29T04:53:03.646Z,99.99
2019-03-29T04:54:03.644Z,99.99
2019-03-29T04:55:03.628Z,99.99
2019-03-29T04:56:03.636Z,99.99
2019-03-29T04:57:03.372Z,99.99
2019-03-29T04:58:03.366Z,99.99
2019-03-29T04:59:03.601Z,99.99
2019-03-29T05:00:03.359Z,99.99
2019-03-29T05:01:03.353Z,99.99
2019-03-29T05:02:03.339Z,99.99
2019-03-29T05:03:03.334Z,99.99
2019-03-29T05:04:03.569Z,99.99
2019-03-29T05:05:03.573Z,99.99
2019-03-29T05:06:03.562Z,99.99
2019-03-29T05:07:03.542Z,99.99
2019-03-29T05:08:03.290Z,99.99
2019-03-29T05:09:03.533Z,99.99
2019-03-29T05:10:03.275Z,99.99
2019-03-29T05:11:03.274Z,99.99
2019-03-29T05:12:03.499Z,99.99
2019-03-29T05:13:03.497Z,99.99
2019-03-29T05:14:03.508Z,99.99
2019-03-29T05:15:03.480Z,99.99
2019-03-29T05:16:03.474Z,99.99
2019-03-29T05:17:03.482Z,99.99
2019-03-29T05:18:03.458Z,99.99
2019-03-29T05:19:03.447Z,99.99
2019-03-29T05:20:03.196Z,99.99
2019-03-29T05:21:03.183Z,99.99
2019-03-29T05:22:03.428Z,99.99
2019-03-29T05:23:03.436Z,99.99
2019-03-29T05:24:03.417Z,99.99
2019-03-29T05:25:03.398Z,99.99
2019-03-29T05:26:03.395Z,99.99
2019-03-29T05:27:03.387Z,99.99
2019-03-29T05:28:03.383Z,99.99
2019-03-29T05:29:03.125Z,99.99
2019-03-29T05:30:03.368Z,99.99
2019-03-29T05:31:03.387Z,99.99
2019-03-29T05:32:03.360Z,99.99
2019-03-29T05:33:03.342Z,99.99
2019-03-29T05:34:03.084Z,99.99
2019-03-29T05:35:03.341Z,99.99
2019-03-29T05:36:03.071Z,99.99
2019-03-29T05:37:03.320Z,99.99
2019-03-29T05:38:03.326Z,99.99
2019-03-29T05:39:03.052Z,99.99
2019-03-29T05:40:03.300Z,99.99
2019-03-29T05:41:03.289Z,99.99
2019-03-29T05:42:03.291Z,99.99
2019-03-29T05:43:03.265Z,99.99
2019-03-29T05:44:03.259Z,99.99
2019-03-29T05:45:03.263Z,99.99
2019-03-29T05:46:03.004Z,99.99
2019-03-29T05:47:03.238Z,99.99
2019-03-29T05:48:03.252Z,99.99
2019-03-29T05:49:03.221Z,99.99
2019-03-29T05:50:03.219Z,99.99
2019-03-29T05:51:03.218Z,99.99
2019-03-29T05:52:03.230Z,99.99
2019-03-29T05:53:02.964Z,99.99
2019-03-29T05:54:03.191Z,99.99
2019-03-29T05:55:03.192Z,99.99
2019-03-29T05:56:02.923Z,99.99
2019-03-29T05:57:02.915Z,99.99
2019-03-29T05:58:03.155Z,99.99
2019-03-29T05:59:03.151Z,99.99
2019-03-29T06:00:03.138Z,99.99
2019-03-29T06:01:03.140Z,99.99
2019-03-29T06:02:03.130Z,99.99
2019-03-29T06:03:03.132Z,99.99
2019-03-29T06:04:03.129Z,99.99
2019-03-29T06:05:03.107Z,99.99
2019-03-29T06:06:03.140Z,99.99
2019-03-29T06:07:03.107Z,99.99
2019-03-29T06:08:03.102Z,99.99
2019-03-29T06:09:03.081Z,99.99
2019-03-29T06:10:03.075Z,99.99
2019-03-29T06:11:03.075Z,99.99
2019-03-29T06:12:02.819Z,99.99
2019-03-29T06:13:03.060Z,99.99
2019-03-29T06:14:03.068Z,99.99
2019-03-29T06:15:03.043Z,99.99
2019-03-29T06:16:06.017Z,99.99
2019-03-29T06:17:03.032Z,99.99
2019-03-29T06:18:03.031Z,99.99
2019-03-29T06:19:03.017Z,99.99
2019-03-29T06:20:03.005Z,99.99
2019-03-29T06:21:03.006Z,99.99
2019-03-29T06:22:02.761Z,99.99
2019-03-29T06:23:02.996Z,99.99
2019-03-29T06:24:02.742Z,99.99
2019-03-29T06:25:02.988Z,99.99
2019-03-29T06:26:02.746Z,99.99
2019-03-29T06:27:02.974Z,99.99
2019-03-29T06:28:03.022Z,99.99
2019-03-29T06:29:02.978Z,99.99
2019-03-29T06:30:02.968Z,99.99
2019-03-29T06:31:02.951Z,99.99
2019-03-29T06:32:02.989Z,99.99
2019-03-29T06:33:02.691Z,99.99
2019-03-29T06:34:02.929Z,99.99
2019-03-29T06:35:02.675Z,99.99
2019-03-29T06:36:02.702Z,99.99
2019-03-29T06:37:02.672Z,99.99
2019-03-29T06:38:02.913Z,99.99
2019-03-29T06:39:02.895Z,99.99
2019-03-29T06:40:02.656Z,99.99
2019-03-29T06:41:05.707Z,99.99
2019-03-29T06:42:02.889Z,99.99
2019-03-29T06:43:02.879Z,99.99
2019-03-29T06:44:02.873Z,99.99
2019-03-29T06:45:02.884Z,99.93
2019-03-29T06:46:02.618Z,99.99
2019-03-29T06:47:02.876Z,99.99
2019-03-29T06:48:02.866Z,99.99
2019-03-29T06:49:02.866Z,99.99
2019-03-29T06:50:02.593Z,99.99
2019-03-29T06:51:02.837Z,99.99
2019-03-29T06:52:02.854Z,93.46
2019-03-29T06:53:04.698Z,87.78
2019-03-29T06:54:02.824Z,83.57
2019-03-29T06:55:02.650Z,79.69
2019-03-29T06:56:02.577Z,75.91
2019-03-29T06:57:02.570Z,71.73
2019-03-29T06:58:02.816Z,69.57
2019-03-29T06:59:02.824Z,66.83
2019-03-29T07:00:02.913Z,66.77
2019-03-29T07:01:02.833Z,66.67
2019-03-29T07:02:02.808Z,65.71
2019-03-29T07:03:02.811Z,66.19
2019-03-29T07:04:02.567Z,67.02
2019-03-29T07:05:02.884Z,66.86
2019-03-29T07:06:02.818Z,66.83
2019-03-29T07:07:02.839Z,69
2019-03-29T07:08:02.833Z,71.55
2019-03-29T07:09:02.565Z,73.43
2019-03-29T07:10:02.586Z,74.38
2019-03-29T07:11:16.031Z,74.19
2019-03-29T07:12:02.841Z,73.71
2019-03-29T07:13:02.808Z,72.94
2019-03-29T07:14:02.573Z,72.85
2019-03-29T07:15:02.818Z,72.08
2019-03-29T07:16:02.576Z,70.5
2019-03-29T07:17:02.815Z,69.82
2019-03-29T07:18:02.838Z,69.54
2019-03-29T07:19:04.929Z,68.42
2019-03-29T07:20:02.817Z,67.21
2019-03-29T07:21:02.842Z,65.05
2019-03-29T07:22:02.553Z,63.06
2019-03-29T07:23:02.812Z,60.79
2019-03-29T07:24:02.830Z,58.71
2019-03-29T07:25:02.823Z,57.4
2019-03-29T07:26:02.815Z,57.21
2019-03-29T07:27:02.825Z,55.99
2019-03-29T07:28:02.818Z,55.41
2019-03-29T07:29:02.589Z,54.74
2019-03-29T07:30:02.893Z,54.38
2019-03-29T07:31:02.827Z,54.96
2019-03-29T07:32:02.835Z,55.32
2019-03-29T07:33:02.826Z,54.83
2019-03-29T07:34:02.584Z,54.35
2019-03-29T07:35:02.587Z,53.9
2019-03-29T07:36:02.839Z,53.61
2019-03-29T07:37:05.624Z,52.65
2019-03-29T07:38:02.834Z,52.29
2019-03-29T07:39:02.591Z,52
2019-03-29T07:40:02.841Z,52
2019-03-29T07:41:02.846Z,51.53
2019-03-29T07:42:02.598Z,51.45
2019-03-29T07:43:02.690Z,50.4
2019-03-29T07:44:02.855Z,49.36
2019-03-29T07:45:02.851Z,49.36
2019-03-29T07:46:02.621Z,50.9
2019-03-29T07:47:02.862Z,50.78
2019-03-29T07:48:02.869Z,50.59
2019-03-29T07:49:02.871Z,49.07
2019-03-29T07:50:02.873Z,49.17
2019-03-29T07:51:02.640Z,49.46
2019-03-29T07:52:02.880Z,49.65
2019-03-29T07:53:02.651Z,49.65
2019-03-29T07:54:02.643Z,48.43
2019-03-29T07:55:02.894Z,46.52
2019-03-29T07:56:02.652Z,46.33
2019-03-29T07:57:02.931Z,46.04
2019-03-29T07:58:02.657Z,46.62
2019-03-29T07:59:02.942Z,47
2019-03-29T08:00:02.769Z,46.4
2019-03-29T08:01:02.666Z,45.75
2019-03-29T08:02:03.947Z,45.56
2019-03-29T08:03:02.929Z,45.65
2019-03-29T08:04:02.678Z,45.17
2019-03-29T08:05:02.968Z,44.62
2019-03-29T08:06:02.933Z,44.13
2019-03-29T08:07:02.947Z,44.32
2019-03-29T08:08:02.944Z,43.96
2019-03-29T08:09:03.666Z,44.04
2019-03-29T08:10:05.931Z,44.06
2019-03-29T08:11:02.819Z,43.96
2019-03-29T08:12:02.966Z,43.58
2019-03-29T08:13:03.007Z,42.8
2019-03-29T08:14:02.726Z,42.73
2019-03-29T08:15:02.730Z,42.05
2019-03-29T08:16:06.390Z,42.35
2019-03-29T08:17:02.741Z,41.86
2019-03-29T08:18:04.044Z,41.57
2019-03-29T08:19:02.755Z,41.5
2019-03-29T08:20:43.459Z,41.5
2019-03-29T08:21:02.755Z,41.19
2019-03-29T08:22:03.031Z,41.77
2019-03-29T08:23:03.008Z,43.19
2019-03-29T08:24:03.013Z,43.46
2019-03-29T08:25:02.870Z,43.75
2019-03-29T08:26:02.791Z,44.79
2019-03-29T08:27:03.033Z,45.34
2019-03-29T08:28:02.787Z,45.34
2019-03-29T08:29:03.040Z,46.19
2019-03-29T08:30:03.038Z,48.08
2019-03-29T08:31:03.046Z,51.21
2019-03-29T08:32:02.803Z,52.98
2019-03-29T08:33:02.811Z,54.49
2019-03-29T08:34:03.066Z,56.48
2019-03-29T08:35:02.820Z,57.31
2019-03-29T08:36:03.075Z,59.48
2019-03-29T08:37:03.065Z,60.51
2019-03-29T08:38:05.960Z,60.7
2019-03-29T08:39:03.075Z,61.08
2019-03-29T08:40:03.085Z,62.01
2019-03-29T08:41:03.081Z,63.54
2019-03-29T08:42:03.106Z,63.8
2019-03-29T08:43:03.076Z,63.42
2019-03-29T08:44:03.081Z,63.51
2019-03-29T08:45:03.082Z,64.85
2019-03-29T08:46:03.087Z,65.42
2019-03-29T08:47:02.839Z,65.9
2019-03-29T08:48:06.622Z,65.42
2019-03-29T08:49:03.089Z,65.14
2019-03-29T08:50:03.093Z,64.95
2019-03-29T08:51:03.089Z,65.23
2019-03-29T08:52:02.835Z,65.52
2019-03-29T08:53:02.879Z,66
2019-03-29T08:54:04.687Z,65.81
2019-03-29T08:55:03.118Z,65.61
2019-03-29T08:56:03.085Z,65.9
2019-03-29T08:57:02.853Z,65.9
2019-03-29T08:58:03.094Z,66
2019-03-29T08:59:03.101Z,65.81
2019-03-29T09:00:03.092Z,66.19
2019-03-29T09:01:03.296Z,65.14
2019-03-29T09:02:03.105Z,64.28
2019-03-29T09:03:02.851Z,64.4
2019-03-29T09:04:07.839Z,63.64
2019-03-29T09:05:02.828Z,62.77
2019-03-29T09:06:02.840Z,62.11
2019-03-29T09:07:02.841Z,62.4
2019-03-29T09:08:03.087Z,62.14
2019-03-29T09:09:03.096Z,61.66
2019-03-29T09:10:02.829Z,60.99
2019-03-29T09:11:03.093Z,61.76
2019-03-29T09:12:16.558Z,62.01
2019-03-29T09:13:06.608Z,61.91
2019-03-29T09:14:02.830Z,62.49
2019-03-29T09:15:06.424Z,62.87
2019-03-29T09:16:02.828Z,63.16
2019-03-29T09:17:02.823Z,63.16
2019-03-29T09:18:02.849Z,63.03
2019-03-29T09:19:02.827Z,63.51
2019-03-29T09:20:03.071Z,63.13
2019-03-29T09:21:03.068Z,63.54
2019-03-29T09:22:03.081Z,63.16
2019-03-29T09:23:02.823Z,62.87
2019-03-29T09:24:03.085Z,63.83
2019-03-29T09:25:02.824Z,63.48
2019-03-29T09:26:03.073Z,61.76
2019-03-29T09:27:02.822Z,61.18
2019-03-29T09:28:03.100Z,61.08
2019-03-29T09:29:02.825Z,63.1
2019-03-29T09:30:05.051Z,63.29
2019-03-29T09:31:03.078Z,64.72
2019-03-29T09:32:02.831Z,64.22
2019-03-29T09:33:02.832Z,65.14
2019-03-29T09:34:03.078Z,67.14
2019-03-29T09:35:03.057Z,68.16
2019-03-29T09:36:04.918Z,67.49
2019-03-29T09:37:02.822Z,68.26
2019-03-29T09:38:03.068Z,68.74
2019-03-29T09:39:02.828Z,69.02
2019-03-29T09:40:03.074Z,68.64
2019-03-29T09:41:03.074Z,68.93
2019-03-29T09:42:03.060Z,68.16
2019-03-29T09:43:11.082Z,68.07
2019-03-29T09:44:03.059Z,68.26
2019-03-29T09:45:03.054Z,68.35
2019-03-29T09:46:05.608Z,68.93
2019-03-29T09:47:02.802Z,69.6
2019-03-29T09:48:03.048Z,69.6
2019-03-29T09:49:03.038Z,71.13
2019-03-29T09:50:02.794Z,70.17
2019-03-29T09:51:03.041Z,69.41
2019-03-29T09:52:03.046Z,68.74
2019-03-29T09:53:04.022Z,68.16
2019-03-29T09:54:02.822Z,67.53
2019-03-29T09:55:02.796Z,66.76
2019-03-29T09:56:03.041Z,66.76
2019-03-29T09:57:03.033Z,67.4
2019-03-29T09:58:02.788Z,67.4
2019-03-29T09:59:03.033Z,67.43
2019-03-29T10:00:17.290Z,68.26
2019-03-29T10:01:02.774Z,67.24
2019-03-29T10:02:03.050Z,66.86
2019-03-29T10:03:02.788Z,66.76
2019-03-29T10:04:03.023Z,67.05
2019-03-29T10:05:03.156Z,66.09
2019-03-29T10:06:03.026Z,66
2019-03-29T10:07:03.035Z,66.13
2019-03-29T10:08:02.802Z,64.12
2019-03-29T10:09:02.768Z,62.33
2019-03-29T10:10:02.773Z,61.57
2019-03-29T10:11:02.770Z,61.18
2019-03-29T10:12:03.024Z,59.94
2019-03-29T10:13:02.772Z,58.81
2019-03-29T10:14:03.039Z,59.01
2019-03-29T10:15:03.010Z,59.01
2019-03-29T10:16:03.018Z,59.77
2019-03-29T10:17:02.761Z,59.97
2019-03-29T10:18:03.018Z,59.2
2019-03-29T10:19:03.014Z,59.48
2019-03-29T10:20:03.026Z,58.81
2019-03-29T10:21:03.015Z,57.86
2019-03-29T10:22:03.016Z,58.56
2019-03-29T10:23:03.009Z,57.03
2019-03-29T10:24:02.764Z,55.21
2019-03-29T10:25:18.247Z,54.37
2019-03-29T10:26:03.018Z,53.6
2019-03-29T10:27:03.041Z,54.66
2019-03-29T10:28:03.008Z,55.71
2019-03-29T10:29:03.011Z,56.38
2019-03-29T10:30:02.763Z,56.48
2019-03-29T10:31:03.009Z,56.96
2019-03-29T10:32:06.243Z,56.67
2019-03-29T10:33:02.766Z,56.64
2019-03-29T10:34:03.029Z,57.03
2019-03-29T10:35:03.007Z,57.12
2019-03-29T10:36:03.011Z,56.74
2019-03-29T10:37:03.005Z,57.31
2019-03-29T10:38:02.760Z,56.54
2019-03-29T10:39:03.012Z,54.53
2019-03-29T10:40:03.012Z,52.42
2019-03-29T10:41:02.762Z,52.42
2019-03-29T10:42:02.774Z,51.95
2019-03-29T10:43:02.763Z,51.4
2019-03-29T10:44:02.764Z,54.56
2019-03-29T10:45:03.018Z,54.37
2019-03-29T10:46:02.767Z,51.78
2019-03-29T10:47:03.007Z,49.79
2019-03-29T10:48:02.777Z,48.74
2019-03-29T10:49:03.010Z,48.35
2019-03-29T10:50:03.011Z,47.39
2019-03-29T10:51:03.046Z,47.58
2019-03-29T10:52:03.024Z,47.97
2019-03-29T10:53:03.025Z,48.07
2019-03-29T10:54:02.762Z,48.07
2019-03-29T10:55:05.076Z,48.25
2019-03-29T10:56:03.013Z,48.16
2019-03-29T10:57:02.855Z,47.58
2019-03-29T10:58:02.778Z,47.58
2019-03-29T10:59:02.768Z,48.07
2019-03-29T11:00:02.771Z,48.07
2019-03-29T11:01:03.010Z,47.2
2019-03-29T11:02:03.026Z,47.58
2019-03-29T11:03:03.021Z,46.81
2019-03-29T11:04:03.016Z,46.62
2019-03-29T11:05:02.774Z,46.81
2019-03-29T11:06:03.016Z,48.07
2019-03-29T11:07:03.021Z,46.81
2019-03-29T11:08:03.019Z,45.57
2019-03-29T11:09:02.787Z,45.67
2019-03-29T11:10:03.018Z,44.8
2019-03-29T11:11:02.770Z,44.8
2019-03-29T11:12:03.019Z,45.09
2019-03-29T11:13:14.491Z,45.36
2019-03-29T11:14:03.024Z,45.54
2019-03-29T11:15:06.430Z,45.07
2019-03-29T11:16:02.783Z,44.97
2019-03-29T11:17:03.027Z,44.78
2019-03-29T11:18:02.776Z,44.78
2019-03-29T11:19:03.033Z,44.49
2019-03-29T11:20:03.021Z,45.45
2019-03-29T11:21:03.021Z,45.26
2019-03-29T11:22:03.018Z,45.07
2019-03-29T11:23:03.020Z,45.74
2019-03-29T11:24:02.778Z,45.16
2019-03-29T11:25:03.018Z,45.07
2019-03-29T11:26:03.167Z,47.17
2019-03-29T11:27:02.768Z,46.79
2019-03-29T11:28:03.024Z,45.43
2019-03-29T11:29:03.016Z,45.26
2019-03-29T11:30:02.766Z,45.81
2019-03-29T11:31:02.767Z,45.81
2019-03-29T11:32:03.017Z,46.1
2019-03-29T11:33:03.008Z,46.48
2019-03-29T11:34:03.020Z,46.1
2019-03-29T11:35:03.016Z,46.39
2019-03-29T11:36:02.775Z,45.72
2019-03-29T11:37:02.785Z,45.72
2019-03-29T11:38:03.021Z,46.03
2019-03-29T11:39:02.754Z,46.1
2019-03-29T11:40:02.761Z,46.5
2019-03-29T11:41:03.008Z,47.66
2019-03-29T11:42:05.589Z,46.89
2019-03-29T11:43:03.021Z,46.12
2019-03-29T11:44:03.017Z,45.36
2019-03-29T11:45:03.011Z,45.07
2019-03-29T11:46:03.016Z,45.36
2019-03-29T11:47:03.000Z,44.78
2019-03-29T11:48:10.953Z,44.97
2019-03-29T11:49:03.006Z,44.78
2019-03-29T11:50:03.001Z,44.49
2019-03-29T11:51:03.010Z,44.87
2019-03-29T11:52:02.999Z,44.87
2019-03-29T11:53:02.998Z,44.97
2019-03-29T11:54:03.002Z,45.16
2019-03-29T11:55:03.002Z,45.83
2019-03-29T11:56:03.272Z,46.41
2019-03-29T11:57:02.998Z,46.12
2019-03-29T11:58:02.746Z,46.41
2019-03-29T11:59:02.747Z,47.17
2019-03-29T12:00:02.993Z,47.44
2019-03-29T12:01:05.436Z,47.34
2019-03-29T12:02:02.739Z,47.44
2019-03-29T12:03:03.013Z,47.15
2019-03-29T12:04:03.012Z,46.77
2019-03-29T12:05:02.744Z,46.7
2019-03-29T12:06:02.750Z,47.08
2019-03-29T12:07:06.080Z,46.98
2019-03-29T12:08:02.772Z,47.46
2019-03-29T12:09:02.993Z,47.17
2019-03-29T12:10:02.993Z,46.98
2019-03-29T12:11:02.981Z,46.7
2019-03-29T12:12:02.987Z,47.56
2019-03-29T12:13:02.984Z,47.66
2019-03-29T12:14:04.927Z,46.98
2019-03-29T12:15:02.751Z,47.56
2019-03-29T12:16:02.744Z,47.56
2019-03-29T12:17:02.748Z,46.89
2019-03-29T12:18:03.108Z,46.5
2019-03-29T12:19:02.989Z,46.6
2019-03-29T12:20:02.985Z,46.29
2019-03-29T12:21:02.989Z,46.29
2019-03-29T12:22:02.985Z,47.73
2019-03-29T12:23:02.736Z,46.79
2019-03-29T12:24:02.987Z,47.92
2019-03-29T12:25:02.988Z,47.25
2019-03-29T12:26:03.086Z,47.73
2019-03-29T12:27:02.974Z,48.21
2019-03-29T12:28:02.979Z,47.63
2019-03-29T12:29:02.999Z,47.25
2019-03-29T12:30:02.974Z,47.82
2019-03-29T12:31:02.732Z,48.11
2019-03-29T12:32:03.060Z,48.21
2019-03-29T12:33:02.990Z,48.33
2019-03-29T12:34:02.744Z,46.98
2019-03-29T12:35:02.731Z,46.7
2019-03-29T12:36:02.979Z,46.22
2019-03-29T12:37:02.742Z,46.41
2019-03-29T12:38:02.975Z,46.31
2019-03-29T12:39:02.730Z,45.26
2019-03-29T12:40:02.984Z,44.78
2019-03-29T12:41:02.987Z,44.78
2019-03-29T12:42:02.726Z,44.97
2019-03-29T12:43:02.985Z,45.16
2019-03-29T12:44:02.980Z,45.16
2019-03-29T12:45:02.977Z,45.26
2019-03-29T12:46:02.956Z,45.26
2019-03-29T12:47:02.977Z,45.07
2019-03-29T12:48:02.962Z,45.64
2019-03-29T12:49:02.959Z,46.31
2019-03-29T12:50:02.954Z,44.87
2019-03-29T12:51:02.716Z,44.87
2019-03-29T12:52:02.966Z,44.8
2019-03-29T12:53:02.966Z,45.07
2019-03-29T12:54:02.719Z,44.2
2019-03-29T12:55:02.958Z,44.4